Weather History for Provincetown, MA

Change the Weather History Date:

Friday, October 5, 2012

  Actual Average Record
Temperature  
Mean Temperature 64 °F -  
Max Temperature 71 °F 60 °F 77 °F (2007)
Min Temperature 57 °F 49 °F 39 °F (1996)
Degree Days  
Heating Degree Days 1    
Growing Degree Days 14 (Base 50)    
Moisture  
Dew Point 60 °F    
Average Humidity 91    
Maximum Humidity 100    
Minimum Humidity 69    
Precipitation  
Precipitation 0.00 in - - ()
Sea Level Pressure  
Sea Level Pressure 29.99 in    
Wind  
Wind Speed 5 mph (SW)    
Max Wind Speed 12 mph    
Max Gust Speed -    
Visibility 8 miles    
Events      
Averages and records for this station are not official NWS values.
T = Trace of Precipitation, MM = Missing Value Source: NWS Daily Summary

Daily Weather History Graph

Daily Weather History Graph

Search for Another Location

Airport:

Trip Planner

Search our weather history database for the weather conditions in past years. The results will help you decide how hot, cold, wet, or windy it might be!

Date:

Astronomy

Oct. 05, 2012 Rise Set
Actual Time 6:42 AM EDT 6:14 PM EDT
Civil Twilight 6:14 AM EDT 6:42 PM EDT
Nautical Twilight 5:42 AM EDT 7:15 PM EDT
Astronomical Twilight 5:09 AM EDT 7:47 PM EDT
Moon 9:30 PM EDT (10/5) 11:52 AM EDT (10/5)
Length of Visible Light 12h 27m
Length of Day
11h 32m
Waning Gibbous, 74% of the Moon is Illuminated
Oct 5
Waning Gibbous
Oct 8
Last Quarter
Oct 15
New
Oct 21
First Quarter
Oct 29
Full

Hourly Weather History & Observations

Time (EDT) Temp. Dew Point Humidity Pressure Visibility Wind Dir Wind Speed Gust Speed Precip Events Conditions
12:15 AM 59.0 °F 57.2 °F 94% 30.03 in 8.0 mi WNW 3.5 mph - N/A   Overcast
12:35 AM 59.0 °F 57.2 °F 94% 30.04 in 10.0 mi NW 4.6 mph - N/A   Overcast
12:55 AM 59.0 °F 57.2 °F 94% 30.03 in 10.0 mi WNW 4.6 mph - N/A   Overcast
1:15 AM 59.0 °F 57.2 °F 94% 30.03 in 10.0 mi NW 8.1 mph - N/A   Overcast
1:35 AM 59.0 °F 57.2 °F 94% 30.03 in 10.0 mi NW 5.8 mph - N/A   Overcast
1:55 AM 59.0 °F 57.2 °F 94% 30.03 in 9.0 mi NW 4.6 mph - N/A   Overcast
2:15 AM 59.0 °F 57.2 °F 94% 30.01 in 10.0 mi NW 3.5 mph - N/A   Overcast
2:35 AM 57.2 °F 55.4 °F 94% 30.01 in 8.0 mi Calm Calm - N/A   Overcast
2:55 AM 59.0 °F 57.2 °F 94% 30.01 in 5.0 mi WNW 3.5 mph - N/A   Overcast
3:15 AM 59.0 °F 57.2 °F 94% 30.01 in 10.0 mi NNW 3.5 mph - N/A   Overcast
3:35 AM 59.0 °F 57.2 °F 94% 30.01 in 10.0 mi NNW 3.5 mph - N/A   Overcast
4:35 AM 59.0 °F 57.2 °F 94% 30.01 in 10.0 mi Calm Calm - N/A   Overcast
4:55 AM 59.0 °F 59.0 °F 100% 30.01 in 10.0 mi WNW 4.6 mph - N/A   Overcast
5:15 AM 60.8 °F 59.0 °F 94% 30.01 in 10.0 mi West 3.5 mph - N/A   Overcast
5:35 AM 59.0 °F 59.0 °F 100% 30.01 in 10.0 mi Calm Calm - N/A   Overcast
5:55 AM 60.8 °F 59.0 °F 94% 30.01 in 10.0 mi NW 4.6 mph - N/A   Overcast
6:15 AM 60.8 °F 59.0 °F 94% 30.02 in 10.0 mi NW 4.6 mph - N/A   Overcast
6:35 AM 60.8 °F 59.0 °F 94% 30.02 in 10.0 mi NW 5.8 mph - N/A   Overcast
6:55 AM 60.8 °F 59.0 °F 94% 30.02 in 10.0 mi WNW 4.6 mph - N/A   Overcast
7:15 AM 60.8 °F 59.0 °F 94% 30.03 in 10.0 mi NW 4.6 mph - N/A   Overcast
7:55 AM 60.8 °F 60.8 °F 100% 30.03 in 8.0 mi WNW 5.8 mph - N/A   Overcast
8:15 AM 60.8 °F 59.0 °F 94% 30.03 in 8.0 mi WNW 4.6 mph - N/A   Overcast
8:35 AM 60.8 °F 59.0 °F 94% 30.03 in 5.0 mi West 5.8 mph - N/A   Overcast
9:15 AM 60.8 °F 59.0 °F 94% 30.03 in 1.2 mi WNW 4.6 mph - N/A   Overcast
9:35 AM 60.8 °F 59.0 °F 94% 30.03 in 3.0 mi SW 5.8 mph - N/A   Overcast
9:55 AM 60.8 °F 59.0 °F 94% 30.03 in 1.2 mi South 6.9 mph - N/A   Overcast
10:15 AM 60.8 °F 60.8 °F 100% 30.03 in 0.8 mi SW 5.8 mph - N/A   Overcast
10:35 AM 60.8 °F 59.0 °F 94% 30.03 in 0.5 mi SW 6.9 mph - N/A   Overcast
11:15 AM 60.8 °F 60.8 °F 100% 30.02 in 0.8 mi SSW 5.8 mph - N/A   Overcast
11:35 AM 60.8 °F 59.0 °F 94% 30.01 in 0.5 mi SW 8.1 mph - N/A   Overcast
11:55 AM 60.8 °F 60.8 °F 100% 30.01 in 1.0 mi South 5.8 mph - N/A   Overcast
12:35 PM 62.6 °F 60.8 °F 94% 30.00 in 10.0 mi SSW 4.6 mph - N/A   Overcast
12:55 PM 64.4 °F 60.8 °F 88% 30.00 in 10.0 mi South 3.5 mph - N/A   Scattered Clouds
1:15 PM 66.2 °F 60.8 °F 83% 29.99 in 10.0 mi NE 4.6 mph - N/A   Clear
1:35 PM 66.2 °F 60.8 °F 83% 29.99 in 10.0 mi Calm Calm - N/A   Clear
1:55 PM 69.8 °F 60.8 °F 73% 29.98 in 10.0 mi Calm Calm - N/A   Clear
2:35 PM 71.6 °F 60.8 °F 69% 29.96 in 10.0 mi Calm Calm - N/A   Clear
2:55 PM 71.6 °F 60.8 °F 69% 29.96 in 10.0 mi WSW 3.5 mph - N/A   Clear
3:15 PM 69.8 °F 60.8 °F 73% 29.95 in 10.0 mi South 5.8 mph - N/A   Clear
3:35 PM 69.8 °F 60.8 °F 73% 29.95 in 10.0 mi SSE 3.5 mph - N/A   Clear
3:55 PM 69.8 °F 60.8 °F 73% 29.95 in 9.0 mi SE 4.6 mph - N/A   Clear
4:15 PM 69.8 °F 60.8 °F 73% 29.95 in 10.0 mi South 6.9 mph - N/A   Clear
4:35 PM 69.8 °F 62.6 °F 78% 29.95 in 10.0 mi SSE 5.8 mph - N/A   Clear
5:15 PM 66.2 °F 62.6 °F 88% 29.95 in 10.0 mi South 9.2 mph - N/A   Clear
5:35 PM 66.2 °F 62.6 °F 88% 29.95 in 10.0 mi South 8.1 mph - N/A   Clear
6:35 PM 64.4 °F 62.6 °F 94% 29.96 in 10.0 mi South 9.2 mph - N/A   Clear
6:55 PM 64.4 °F 60.8 °F 88% 29.96 in 10.0 mi South 9.2 mph - N/A   Clear
7:15 PM 62.6 °F 60.8 °F 94% 29.96 in 10.0 mi South 9.2 mph - N/A   Clear
7:35 PM 62.6 °F 60.8 °F 94% 29.95 in 10.0 mi South 9.2 mph - N/A   Clear
7:55 PM 62.6 °F 60.8 °F 94% 29.95 in 10.0 mi South 8.1 mph - N/A   Clear
8:15 PM 62.6 °F 60.8 °F 94% 29.96 in 10.0 mi South 9.2 mph - N/A   Clear
8:35 PM 62.6 °F 60.8 °F 94% 29.95 in 10.0 mi South 9.2 mph - N/A   Clear
8:55 PM 62.6 °F 60.8 °F 94% 29.95 in 10.0 mi South 9.2 mph - N/A   Clear
9:15 PM 62.6 °F 60.8 °F 94% 29.95 in 10.0 mi SSW 9.2 mph - N/A   Clear
9:35 PM 62.6 °F 60.8 °F 94% 29.95 in 10.0 mi South 11.5 mph - N/A   Clear
9:55 PM 62.6 °F 60.8 °F 94% 29.95 in 10.0 mi SSW 9.2 mph - N/A   Clear
10:35 PM 62.6 °F 60.8 °F 94% 29.94 in 10.0 mi SSW 8.1 mph - N/A   Clear
10:55 PM 60.8 °F 60.8 °F 100% 29.94 in 9.0 mi SSW 6.9 mph - N/A   Clear
11:16 PM 60.8 °F 59.0 °F 94% 29.94 in 10.0 mi SSW 5.8 mph - N/A   Clear
11:35 PM 60.8 °F 59.0 °F 94% 29.94 in 10.0 mi SSW 6.9 mph - N/A   Clear
11:55 PM 60.8 °F 59.0 °F 94% 29.94 in 10.0 mi SSW 6.9 mph - N/A   Clear